createdAt,value
2022-09-12T00:02:14.124Z,12.86
2022-09-12T00:04:43.916Z,12.80
2022-09-12T00:07:14.941Z,12.84
2022-09-12T00:09:43.528Z,12.80
2022-09-12T00:12:13.323Z,12.88
2022-09-12T00:14:42.960Z,12.86
2022-09-12T00:17:12.730Z,12.83
2022-09-12T00:19:43.314Z,12.89
2022-09-12T00:22:13.046Z,12.81
2022-09-12T00:24:44.770Z,12.86
2022-09-12T00:27:13.082Z,12.85
2022-09-12T00:29:42.673Z,12.88
2022-09-12T00:32:12.560Z,12.86
2022-09-12T00:34:42.167Z,12.78
2022-09-12T00:37:11.995Z,12.75
2022-09-12T00:39:41.793Z,12.70
2022-09-12T00:42:13.365Z,12.71
2022-09-12T00:44:49.312Z,12.66
2022-09-12T00:47:30.667Z,12.73
2022-09-12T00:50:06.068Z,12.74
2022-09-12T00:52:37.119Z,12.69
2022-09-12T00:55:11.009Z,12.60
2022-09-12T00:57:46.063Z,12.52
2022-09-12T01:00:20.023Z,12.51
2022-09-12T01:02:53.672Z,12.47
2022-09-12T01:05:25.977Z,12.43
2022-09-12T01:07:58.216Z,12.44
2022-09-12T01:10:26.822Z,12.47
2022-09-12T01:12:57.732Z,12.58
2022-09-12T01:15:25.754Z,12.65
2022-09-12T01:18:07.692Z,12.72
2022-09-12T01:20:49.576Z,12.82
2022-09-12T01:23:48.678Z,12.79
2022-09-12T01:26:55.451Z,12.89
2022-09-12T01:29:50.683Z,12.77
2022-09-12T01:32:26.518Z,12.83
2022-09-12T01:35:01.997Z,12.76
2022-09-12T01:37:38.732Z,12.78
2022-09-12T01:40:16.226Z,12.73
2022-09-12T01:42:53.577Z,12.79
2022-09-12T01:45:29.467Z,12.79
2022-09-12T01:48:06.211Z,12.68
2022-09-12T01:50:39.471Z,12.61
2022-09-12T01:53:15.567Z,12.58
2022-09-12T01:55:51.349Z,12.52
2022-09-12T01:58:23.690Z,12.49
2022-09-12T02:00:59.689Z,12.50
2022-09-12T02:03:34.556Z,12.47
2022-09-12T02:06:09.387Z,12.48
2022-09-12T02:08:43.931Z,12.47
2022-09-12T02:11:15.088Z,12.55
2022-09-12T02:13:50.917Z,12.45
2022-09-12T02:16:26.766Z,12.42
2022-09-12T02:19:05.287Z,12.39
2022-09-12T02:21:38.637Z,12.30
2022-09-12T02:24:11.673Z,12.30
2022-09-12T02:26:45.856Z,12.23
2022-09-12T02:29:16.916Z,12.23
2022-09-12T02:31:48.910Z,12.22
2022-09-12T02:34:30.180Z,12.19
2022-09-12T02:37:04.762Z,12.12
2022-09-12T02:39:35.213Z,12.06
2022-09-12T02:42:04.633Z,12.00
2022-09-12T02:44:35.251Z,11.99
2022-09-12T02:47:07.160Z,11.98
2022-09-12T02:49:39.830Z,12.00
2022-09-12T02:52:08.068Z,12.08
2022-09-12T02:54:38.361Z,11.97
2022-09-12T02:57:21.903Z,11.96
2022-09-12T02:59:55.503Z,11.90
2022-09-12T03:02:31.779Z,11.88
2022-09-12T03:05:28.136Z,11.85
2022-09-12T03:08:27.352Z,11.81
2022-09-12T03:11:10.464Z,11.78
2022-09-12T03:13:42.649Z,11.79
2022-09-12T03:16:18.503Z,11.75
2022-09-12T03:18:54.196Z,11.82
2022-09-12T03:21:31.913Z,11.96
2022-09-12T03:24:12.617Z,11.95
2022-09-12T03:26:46.031Z,11.87
2022-09-12T03:29:17.107Z,11.83
2022-09-12T03:31:51.250Z,11.82
2022-09-12T03:34:23.087Z,11.81
2022-09-12T03:36:55.995Z,11.77
2022-09-12T03:39:26.973Z,11.73
2022-09-12T03:41:58.103Z,11.71
2022-09-12T03:44:27.771Z,11.78
2022-09-12T03:46:57.281Z,11.93
2022-09-12T03:49:27.132Z,11.94
2022-09-12T03:51:58.111Z,11.88
2022-09-12T03:54:26.659Z,11.81
2022-09-12T03:56:56.242Z,11.80
2022-09-12T03:59:26.051Z,11.85
2022-09-12T04:01:55.719Z,11.81
2022-09-12T04:04:25.786Z,11.76
2022-09-12T04:06:55.579Z,11.83
2022-09-12T04:09:26.895Z,11.75
2022-09-12T04:11:55.286Z,11.68
2022-09-12T04:14:25.366Z,11.65
2022-09-12T04:16:55.016Z,11.63
2022-09-12T04:19:24.778Z,11.71
2022-09-12T04:21:54.640Z,11.87
2022-09-12T04:24:25.925Z,11.79
2022-09-12T04:26:54.473Z,11.69
2022-09-12T04:29:25.097Z,11.61
2022-09-12T04:31:55.324Z,11.56
2022-09-12T04:34:24.657Z,11.65
2022-09-12T04:36:54.454Z,11.73
2022-09-12T04:39:24.379Z,11.73
2022-09-12T04:41:55.351Z,11.67
2022-09-12T04:44:23.904Z,11.65
2022-09-12T04:46:53.746Z,11.70
2022-09-12T04:49:23.991Z,11.75
2022-09-12T04:51:54.122Z,11.70
2022-09-12T04:54:24.995Z,11.65
2022-09-12T04:56:56.227Z,11.63
2022-09-12T04:59:26.504Z,11.60
2022-09-12T05:01:57.428Z,11.59
2022-09-12T05:04:25.416Z,11.59
2022-09-12T05:06:54.780Z,11.59
2022-09-12T05:09:24.266Z,11.60
2022-09-12T05:12:08.918Z,11.73
2022-09-12T05:14:38.343Z,11.79
2022-09-12T05:17:07.066Z,11.84
2022-09-12T05:19:37.007Z,11.86
2022-09-12T05:22:07.760Z,11.90
2022-09-12T05:24:39.331Z,12.01
2022-09-12T05:27:10.424Z,12.07
2022-09-12T05:29:42.975Z,12.17
2022-09-12T05:32:13.478Z,12.20
2022-09-12T05:34:43.626Z,12.38
2022-09-12T05:37:14.343Z,12.43
2022-09-12T05:39:44.114Z,12.49
2022-09-12T05:42:14.284Z,12.60
2022-09-12T05:44:45.463Z,12.64
2022-09-12T05:47:13.803Z,12.67
2022-09-12T05:49:45.170Z,12.66
2022-09-12T05:52:15.249Z,12.61
2022-09-12T05:54:45.090Z,12.57
2022-09-12T05:57:14.884Z,12.59
2022-09-12T05:59:46.385Z,12.62
2022-09-12T06:02:14.668Z,12.58
2022-09-12T06:04:44.168Z,12.69
2022-09-12T06:07:14.555Z,12.71
2022-09-12T06:09:45.449Z,12.71
2022-09-12T06:12:15.292Z,12.76
2022-09-12T06:14:46.567Z,12.86
2022-09-12T06:17:15.257Z,13.04
2022-09-12T06:19:45.554Z,13.17
2022-09-12T06:22:14.975Z,13.38
2022-09-12T06:24:44.835Z,13.41
2022-09-12T06:27:14.734Z,13.53
2022-09-12T06:29:44.363Z,13.53
2022-09-12T06:32:15.630Z,13.64
2022-09-12T06:34:48.419Z,13.66
2022-09-12T06:37:16.596Z,13.79
2022-09-12T06:39:46.965Z,13.83
2022-09-12T06:42:16.405Z,14.11
2022-09-12T06:45:00.151Z,14.27
2022-09-12T06:47:32.962Z,14.41
2022-09-12T06:50:04.456Z,14.54
2022-09-12T06:52:35.444Z,14.61
2022-09-12T06:55:07.321Z,14.76
2022-09-12T06:57:38.880Z,14.74
2022-09-12T07:00:11.741Z,14.96
2022-09-12T07:02:43.730Z,15.23
2022-09-12T07:05:15.494Z,15.47
2022-09-12T07:07:46.433Z,15.69
2022-09-12T07:10:22.123Z,15.94
2022-09-12T07:12:53.354Z,16.09
2022-09-12T07:15:24.224Z,16.41
2022-09-12T07:17:56.946Z,16.45
2022-09-12T07:20:28.150Z,16.74
2022-09-12T07:22:59.081Z,16.81
2022-09-12T07:25:29.973Z,16.97
2022-09-12T07:28:00.967Z,17.01
2022-09-12T07:30:31.944Z,16.99
2022-09-12T07:33:04.368Z,17.01
2022-09-12T07:35:35.595Z,16.94
2022-09-12T07:38:06.530Z,17.01
2022-09-12T07:40:37.399Z,16.92
2022-09-12T07:43:08.337Z,17.24
2022-09-12T07:45:41.776Z,17.23
2022-09-12T07:48:14.209Z,17.41
2022-09-12T07:50:45.257Z,17.28
2022-09-12T07:53:16.154Z,17.34
2022-09-12T07:55:54.445Z,17.59
2022-09-12T07:58:25.654Z,17.52
2022-09-12T08:00:56.545Z,17.46
2022-09-12T08:03:28.804Z,17.38
2022-09-12T08:06:05.125Z,17.55
2022-09-12T08:08:36.266Z,17.81
2022-09-12T08:11:08.471Z,18.18
2022-09-12T08:13:40.863Z,18.23
2022-09-12T08:16:14.487Z,18.24
2022-09-12T08:18:46.941Z,18.05
2022-09-12T08:21:19.437Z,17.88
2022-09-12T08:23:53.246Z,17.91
2022-09-12T08:26:24.679Z,17.91
2022-09-12T08:28:55.854Z,18.01
2022-09-12T08:31:28.287Z,18.21
2022-09-12T08:34:00.825Z,18.55
2022-09-12T08:36:31.857Z,19.07
2022-09-12T08:39:04.415Z,19.23
2022-09-12T08:41:37.693Z,19.64
2022-09-12T08:44:29.523Z,20.18
2022-09-12T08:47:10.160Z,20.09
2022-09-12T08:49:55.100Z,20.74
2022-09-12T08:52:30.479Z,20.81
2022-09-12T08:55:02.194Z,21.13
2022-09-12T08:57:33.494Z,20.32
2022-09-12T09:00:06.669Z,20.26
2022-09-12T09:03:07.974Z,19.93
2022-09-12T09:05:48.873Z,19.02
2022-09-12T09:08:30.655Z,19.36
2022-09-12T09:11:06.156Z,19.35
2022-09-12T09:14:05.408Z,19.33
2022-09-12T09:16:38.713Z,18.97
2022-09-12T09:19:15.643Z,19.11
2022-09-12T09:21:52.485Z,18.86
2022-09-12T09:24:26.501Z,18.52
2022-09-12T09:27:00.253Z,18.52
2022-09-12T09:29:35.037Z,18.34
2022-09-12T09:32:13.382Z,18.15
2022-09-12T09:34:44.380Z,18.28
2022-09-12T09:37:20.806Z,18.44
2022-09-12T09:40:00.325Z,18.40
2022-09-12T09:42:39.163Z,18.62
2022-09-12T09:45:16.083Z,18.52
2022-09-12T09:47:46.755Z,18.99
2022-09-12T09:50:17.674Z,19.30
2022-09-12T09:52:50.370Z,19.37
2022-09-12T09:55:24.393Z,19.88
2022-09-12T09:57:55.325Z,20.07
2022-09-12T10:00:31.789Z,19.63
2022-09-12T10:03:17.121Z,19.35
2022-09-12T10:05:48.759Z,19.65
2022-09-12T10:08:27.331Z,20.24
2022-09-12T10:11:01.826Z,20.12
2022-09-12T10:13:42.431Z,19.37
2022-09-12T10:16:22.186Z,19.67
2022-09-12T10:18:54.041Z,20.74
2022-09-12T10:21:35.761Z,20.72
2022-09-12T10:24:20.059Z,20.80
2022-09-12T10:26:56.536Z,20.98
2022-09-12T10:29:29.831Z,20.59
2022-09-12T10:32:02.450Z,20.66
2022-09-12T10:34:36.216Z,20.35
2022-09-12T10:37:08.969Z,20.99
2022-09-12T10:39:41.345Z,20.61
2022-09-12T10:42:17.527Z,21.32
2022-09-12T10:44:55.542Z,21.81
2022-09-12T10:47:32.157Z,22.19
2022-09-12T10:50:23.051Z,21.32
2022-09-12T10:52:54.431Z,21.56
2022-09-12T10:55:34.062Z,21.59
2022-09-12T10:58:17.228Z,21.39
2022-09-12T11:00:51.996Z,21.98
2022-09-12T11:03:25.391Z,22.69
2022-09-12T11:05:58.274Z,23.23
2022-09-12T11:08:51.603Z,23.38
2022-09-12T11:11:40.322Z,22.82
2022-09-12T11:14:26.143Z,22.09
2022-09-12T11:17:00.683Z,22.50
2022-09-12T11:19:47.061Z,23.01
2022-09-12T11:22:37.839Z,22.24
2022-09-12T11:25:28.293Z,22.51
2022-09-12T11:28:13.235Z,22.29
2022-09-12T11:30:55.242Z,22.06
2022-09-12T11:33:38.619Z,22.28
2022-09-12T11:36:21.598Z,22.14
2022-09-12T11:38:54.406Z,22.68
2022-09-12T11:41:29.433Z,22.80
2022-09-12T11:44:05.227Z,23.63
2022-09-12T11:46:37.266Z,22.88
2022-09-12T11:49:18.435Z,22.61
2022-09-12T11:51:51.745Z,22.08
2022-09-12T11:54:27.975Z,21.93
2022-09-12T11:57:05.560Z,22.67
2022-09-12T11:59:43.730Z,22.78
2022-09-12T12:02:23.823Z,22.42
2022-09-12T12:05:04.227Z,23.32
2022-09-12T12:07:45.360Z,23.19
2022-09-12T12:10:26.649Z,23.72
2022-09-12T12:12:58.305Z,23.62
2022-09-12T12:15:31.226Z,23.47
2022-09-12T12:18:08.204Z,23.67
2022-09-12T12:20:39.102Z,23.79
2022-09-12T12:23:23.978Z,23.99
2022-09-12T12:25:56.519Z,24.26
2022-09-12T12:28:50.527Z,23.45
2022-09-12T12:31:23.732Z,24.55
2022-09-12T12:34:23.509Z,23.84
2022-09-12T12:36:54.751Z,24.14
2022-09-12T12:40:04.725Z,23.88
2022-09-12T12:43:07.628Z,23.10
2022-09-12T12:46:10.278Z,22.64
2022-09-12T12:49:16.453Z,22.97
2022-09-12T12:51:57.802Z,23.33
2022-09-12T12:54:54.658Z,23.06
2022-09-12T12:57:32.198Z,22.44
2022-09-12T13:00:06.902Z,22.57
2022-09-12T13:02:37.286Z,23.16
2022-09-12T13:05:19.068Z,22.86
2022-09-12T13:07:56.044Z,22.47
2022-09-12T13:10:29.458Z,22.78
2022-09-12T13:13:03.327Z,22.74
2022-09-12T13:15:51.949Z,22.46
2022-09-12T13:18:28.657Z,22.66
2022-09-12T13:21:10.154Z,22.97
2022-09-12T13:23:42.679Z,22.87
2022-09-12T13:26:15.433Z,22.60
2022-09-12T13:28:46.642Z,22.38
2022-09-12T13:31:23.062Z,21.81
2022-09-12T13:33:55.851Z,21.62
2022-09-12T13:36:48.983Z,22.04
2022-09-12T13:39:22.699Z,21.89
2022-09-12T13:42:16.992Z,21.69
2022-09-12T13:44:52.382Z,21.83
2022-09-12T13:47:27.376Z,21.56
2022-09-12T13:49:58.808Z,21.70
2022-09-12T13:52:31.918Z,21.57
2022-09-12T13:55:09.008Z,22.28
2022-09-12T13:57:41.627Z,22.71
2022-09-12T14:00:16.159Z,21.99
2022-09-12T14:02:44.867Z,21.79
2022-09-12T14:05:20.074Z,21.69
2022-09-12T14:07:56.636Z,21.88
2022-09-12T14:10:33.009Z,21.89
2022-09-12T14:13:06.049Z,22.31
2022-09-12T14:15:38.166Z,22.30
2022-09-12T14:18:21.472Z,22.35
2022-09-12T14:20:56.925Z,22.52
2022-09-12T14:23:30.467Z,22.40
2022-09-12T14:26:05.059Z,22.62
2022-09-12T14:28:37.574Z,22.62
2022-09-12T14:31:08.940Z,22.69
2022-09-12T14:33:48.659Z,22.06
2022-09-12T14:36:25.721Z,21.58
2022-09-12T14:38:58.867Z,21.34
2022-09-12T14:41:33.163Z,21.19
2022-09-12T14:44:06.054Z,20.79
2022-09-12T14:46:39.138Z,20.58
2022-09-12T14:49:13.702Z,20.39
2022-09-12T14:51:53.598Z,20.34
2022-09-12T14:54:42.839Z,20.46
2022-09-12T14:57:36.736Z,20.79
2022-09-12T15:00:17.833Z,20.92
2022-09-12T15:02:48.163Z,21.04
2022-09-12T15:05:21.902Z,21.01
2022-09-12T15:07:55.435Z,20.87
2022-09-12T15:10:31.008Z,20.86
2022-09-12T15:13:14.178Z,20.93
2022-09-12T15:15:46.841Z,20.73
2022-09-12T15:18:18.190Z,20.80
2022-09-12T15:20:50.660Z,21.19
2022-09-12T15:23:22.485Z,21.33
2022-09-12T15:25:53.371Z,21.50
2022-09-12T15:28:26.847Z,21.73
2022-09-12T15:30:58.166Z,22.16
2022-09-12T15:33:29.130Z,22.51
2022-09-12T15:36:00.051Z,22.13
2022-09-12T15:38:30.926Z,22.30
2022-09-12T15:41:01.877Z,22.28
2022-09-12T15:43:34.181Z,21.48
2022-09-12T15:46:06.772Z,21.55
2022-09-12T15:48:37.789Z,21.62
2022-09-12T15:51:15.438Z,21.88
2022-09-12T15:53:47.939Z,21.38
2022-09-12T15:56:20.986Z,21.20
2022-09-12T15:59:00.515Z,21.47
2022-09-12T16:01:31.013Z,20.96
2022-09-12T16:04:00.188Z,20.96
2022-09-12T16:06:36.294Z,20.99
2022-09-12T16:09:07.972Z,21.41
2022-09-12T16:11:39.492Z,22.13
2022-09-12T16:14:14.875Z,22.54
2022-09-12T16:16:43.895Z,22.45
2022-09-12T16:19:15.461Z,22.19
2022-09-12T16:21:46.688Z,22.09
2022-09-12T16:24:17.793Z,21.70
2022-09-12T16:26:49.024Z,20.93
2022-09-12T16:29:21.317Z,20.86
2022-09-12T16:31:52.221Z,20.75
2022-09-12T16:34:23.234Z,20.36
2022-09-12T16:36:54.225Z,20.19
2022-09-12T16:39:23.041Z,20.46
2022-09-12T16:41:54.002Z,20.10
2022-09-12T16:44:26.302Z,20.05
2022-09-12T16:46:57.211Z,20.04
2022-09-12T16:49:28.108Z,19.82
2022-09-12T16:51:57.771Z,19.95
2022-09-12T16:54:27.786Z,19.81
2022-09-12T16:56:57.515Z,19.78
2022-09-12T16:59:28.612Z,19.70
2022-09-12T17:01:57.225Z,19.69
2022-09-12T17:04:27.146Z,19.64
2022-09-12T17:06:59.396Z,19.62
2022-09-12T17:09:30.336Z,19.61
2022-09-12T17:12:00.732Z,19.61
2022-09-12T17:14:31.492Z,19.36
2022-09-12T17:17:00.097Z,19.34
2022-09-12T17:19:29.949Z,19.10
2022-09-12T17:21:59.778Z,19.16
2022-09-12T17:24:29.602Z,19.01
2022-09-12T17:26:59.355Z,18.93
2022-09-12T17:29:31.601Z,18.93
2022-09-12T17:31:59.866Z,18.76
2022-09-12T17:34:30.200Z,18.66
2022-09-12T17:37:00.273Z,18.78
2022-09-12T17:39:29.986Z,18.76
2022-09-12T17:42:00.098Z,18.71
2022-09-12T17:44:31.159Z,18.65
2022-09-12T17:47:02.986Z,18.51
2022-09-12T17:49:34.278Z,18.44
2022-09-12T17:52:04.165Z,18.35
2022-09-12T17:54:33.658Z,18.32
2022-09-12T17:57:04.982Z,18.28
2022-09-12T17:59:35.099Z,18.26
2022-09-12T18:02:14.425Z,18.38
2022-09-12T18:04:45.826Z,18.26
2022-09-12T18:07:14.210Z,18.16
2022-09-12T18:09:43.738Z,18.19
2022-09-12T18:12:14.181Z,18.11
2022-09-12T18:14:45.613Z,18.06
2022-09-12T18:17:13.654Z,17.95
2022-09-12T18:19:44.597Z,17.79
2022-09-12T18:22:13.800Z,17.73
2022-09-12T18:24:44.529Z,17.73
2022-09-12T18:27:14.255Z,17.71
2022-09-12T18:29:55.139Z,17.73
2022-09-12T18:32:35.402Z,17.62
2022-09-12T18:35:07.420Z,17.71
2022-09-12T18:37:38.519Z,17.59
2022-09-12T18:40:09.529Z,17.57
2022-09-12T18:42:39.158Z,17.55
2022-09-12T18:45:11.148Z,17.43
2022-09-12T18:47:42.285Z,17.39
2022-09-12T18:50:11.695Z,17.41
2022-09-12T18:52:41.885Z,17.22
2022-09-12T18:55:11.932Z,17.14
2022-09-12T18:57:42.101Z,17.09
2022-09-12T19:00:14.602Z,17.08
2022-09-12T19:02:44.593Z,17.01
2022-09-12T19:05:14.382Z,16.98
2022-09-12T19:07:43.514Z,16.92
2022-09-12T19:10:13.104Z,16.84
2022-09-12T19:12:43.010Z,16.73
2022-09-12T19:15:14.226Z,16.68
2022-09-12T19:17:44.979Z,16.59
2022-09-12T19:20:14.873Z,16.62
2022-09-12T19:22:44.648Z,16.61
2022-09-12T19:25:14.599Z,16.63
2022-09-12T19:27:44.342Z,16.51
2022-09-12T19:30:15.448Z,16.53
2022-09-12T19:32:45.601Z,16.55
2022-09-12T19:35:14.799Z,16.47
2022-09-12T19:37:43.804Z,16.42
2022-09-12T19:40:13.612Z,16.39
2022-09-12T19:42:43.495Z,16.45
2022-09-12T19:45:13.210Z,16.40
2022-09-12T19:47:43.344Z,16.41
2022-09-12T19:50:11.769Z,16.39
2022-09-12T19:52:42.135Z,16.34
2022-09-12T19:55:11.185Z,16.31
2022-09-12T19:57:40.984Z,16.28
2022-09-12T20:00:12.226Z,16.34
2022-09-12T20:02:41.468Z,16.34
2022-09-12T20:05:11.776Z,16.31
2022-09-12T20:07:40.130Z,16.33
2022-09-12T20:10:10.225Z,16.31
2022-09-12T20:12:39.746Z,16.31
2022-09-12T20:15:11.046Z,16.25
2022-09-12T20:17:42.383Z,16.27
2022-09-12T20:20:14.217Z,16.30
2022-09-12T20:22:44.272Z,16.25
2022-09-12T20:25:14.379Z,16.27
2022-09-12T20:27:44.355Z,16.26
2022-09-12T20:30:14.510Z,16.39
2022-09-12T20:32:44.799Z,16.32
2022-09-12T20:35:17.420Z,16.27
2022-09-12T20:37:48.348Z,16.30
2022-09-12T20:40:19.505Z,16.39
2022-09-12T20:42:50.445Z,16.25
2022-09-12T20:45:21.424Z,16.24
2022-09-12T20:47:52.287Z,16.23
2022-09-12T20:50:24.558Z,16.30
2022-09-12T20:52:55.018Z,16.37
2022-09-12T20:55:23.666Z,16.34
2022-09-12T20:57:54.498Z,16.35
2022-09-12T21:00:25.339Z,16.33
2022-09-12T21:02:56.648Z,16.33
2022-09-12T21:05:28.919Z,16.33
2022-09-12T21:07:58.387Z,16.36
2022-09-12T21:10:29.261Z,16.34
2022-09-12T21:13:00.152Z,16.40
2022-09-12T21:15:31.009Z,16.42
2022-09-12T21:18:01.893Z,16.35
2022-09-12T21:20:34.402Z,16.36
2022-09-12T21:23:04.693Z,16.36
2022-09-12T21:25:35.550Z,16.31
2022-09-12T21:28:06.471Z,16.28
2022-09-12T21:30:37.362Z,16.45
2022-09-12T21:33:08.284Z,16.40
2022-09-12T21:35:40.539Z,16.24
2022-09-12T21:38:10.021Z,16.14
2022-09-12T21:40:40.899Z,16.18
2022-09-12T21:43:13.176Z,16.25
2022-09-12T21:45:44.164Z,16.16
2022-09-12T21:48:15.182Z,16.10
2022-09-12T21:50:52.025Z,16.13
2022-09-12T21:53:22.997Z,16.11
2022-09-12T21:55:54.359Z,16.09
2022-09-12T21:58:25.230Z,16.08
2022-09-12T22:00:56.399Z,16.12
2022-09-12T22:03:27.602Z,16.06
2022-09-12T22:06:01.517Z,16.04
2022-09-12T22:08:33.803Z,16.10
2022-09-12T22:11:09.379Z,16.03
2022-09-12T22:13:42.710Z,16.02
2022-09-12T22:16:13.754Z,16.04
2022-09-12T22:18:47.038Z,16.03
2022-09-12T22:21:20.934Z,16.03
2022-09-12T22:24:09.664Z,16.02
2022-09-12T22:26:42.461Z,16.06
2022-09-12T22:29:13.783Z,16.02
2022-09-12T22:31:44.701Z,16.00
2022-09-12T22:34:14.843Z,16.01
2022-09-12T22:36:45.591Z,16.12
2022-09-12T22:39:14.153Z,16.09
2022-09-12T22:41:43.482Z,16.08
2022-09-12T22:44:13.226Z,16.06
2022-09-12T22:46:42.607Z,16.01
2022-09-12T22:49:12.759Z,16.07
2022-09-12T22:51:41.389Z,16.11
2022-09-12T22:54:12.117Z,16.11
2022-09-12T22:56:40.857Z,15.98
2022-09-12T22:59:10.158Z,15.99
2022-09-12T23:01:39.361Z,16.00
2022-09-12T23:04:08.660Z,15.98
2022-09-12T23:06:38.059Z,15.94
2022-09-12T23:09:07.254Z,15.94
2022-09-12T23:11:38.232Z,15.91
2022-09-12T23:14:06.794Z,15.98
2022-09-12T23:16:36.248Z,15.92
2022-09-12T23:19:05.624Z,15.89
2022-09-12T23:21:34.851Z,15.90
2022-09-12T23:24:05.483Z,15.90
2022-09-12T23:26:34.348Z,15.93
2022-09-12T23:29:05.611Z,15.90
2022-09-12T23:31:35.710Z,15.92
2022-09-12T23:34:06.847Z,15.90
2022-09-12T23:36:37.315Z,15.88
2022-09-12T23:39:06.748Z,15.88
2022-09-12T23:41:35.944Z,15.90
2022-09-12T23:44:06.518Z,15.94
2022-09-12T23:46:35.251Z,15.96
2022-09-12T23:49:04.269Z,15.97
2022-09-12T23:51:33.556Z,15.98
2022-09-12T23:54:03.342Z,15.92
2022-09-12T23:56:32.652Z,15.92
2022-09-12T23:59:01.896Z,15.88
